sensor_id;sensor_type;location;lat;lon;timestamp;temperature;humidity
18252;DHT22;26917;52.328;20.878;2022-09-01T00:11:22;13.30;97.10
18252;DHT22;26917;52.328;20.878;2022-09-01T03:25:11;10.10;99.90
18252;DHT22;26917;52.328;20.878;2022-09-01T04:07:29;9.50;99.90
18252;DHT22;26917;52.328;20.878;2022-09-01T04:47:23;9.30;99.90
18252;DHT22;26917;52.328;20.878;2022-09-01T04:51:25;9.30;99.90
18252;DHT22;26917;52.328;20.878;2022-09-01T04:54:20;9.30;99.90
18252;DHT22;26917;52.328;20.878;2022-09-01T05:13:26;9.40;99.90
18252;DHT22;26917;52.328;20.878;2022-09-01T05:16:18;9.50;99.90
18252;DHT22;26917;52.328;20.878;2022-09-01T05:18:56;9.60;99.90
18252;DHT22;26917;52.328;20.878;2022-09-01T05:22:31;9.60;99.90
18252;DHT22;26917;52.328;20.878;2022-09-01T05:25:26;9.70;99.90
18252;DHT22;26917;52.328;20.878;2022-09-01T05:37:52;9.90;99.90
18252;DHT22;26917;52.328;20.878;2022-09-01T05:41:57;10.00;99.90
18252;DHT22;26917;52.328;20.878;2022-09-01T06:14:12;11.50;99.90
18252;DHT22;26917;52.328;20.878;2022-09-01T06:17:29;11.70;99.90
18252;DHT22;26917;52.328;20.878;2022-09-01T06:20:48;11.80;99.90
18252;DHT22;26917;52.328;20.878;2022-09-01T06:27:40;12.20;99.90
18252;DHT22;26917;52.328;20.878;2022-09-01T06:30:16;12.30;99.90
18252;DHT22;26917;52.328;20.878;2022-09-01T06:33:00;12.40;99.90
18252;DHT22;26917;52.328;20.878;2022-09-01T06:35:49;12.50;99.90
18252;DHT22;26917;52.328;20.878;2022-09-01T06:38:21;12.50;99.90
18252;DHT22;26917;52.328;20.878;2022-09-01T06:40:59;12.60;99.90
18252;DHT22;26917;52.328;20.878;2022-09-01T06:47:19;12.70;99.90
18252;DHT22;26917;52.328;20.878;2022-09-01T06:57:46;13.20;99.90
18252;DHT22;26917;52.328;20.878;2022-09-01T07:00:53;13.40;99.90
18252;DHT22;26917;52.328;20.878;2022-09-01T07:06:54;13.70;99.90
18252;DHT22;26917;52.328;20.878;2022-09-01T07:10:03;14.10;99.90
18252;DHT22;26917;52.328;20.878;2022-09-01T07:13:01;14.40;99.90
18252;DHT22;26917;52.328;20.878;2022-09-01T07:15:32;14.40;99.90
18252;DHT22;26917;52.328;20.878;2022-09-01T07:18:24;14.50;99.90
18252;DHT22;26917;52.328;20.878;2022-09-01T07:21:16;14.50;99.90
18252;DHT22;26917;52.328;20.878;2022-09-01T07:24:08;14.50;99.90
18252;DHT22;26917;52.328;20.878;2022-09-01T07:26:48;14.50;99.90
18252;DHT22;26917;52.328;20.878;2022-09-01T07:29:21;14.50;99.90
18252;DHT22;26917;52.328;20.878;2022-09-01T07:32:27;14.50;99.90
18252;DHT22;26917;52.328;20.878;2022-09-01T07:35:17;14.50;99.90
18252;DHT22;26917;52.328;20.878;2022-09-01T07:37:48;14.60;99.90
18252;DHT22;26917;52.328;20.878;2022-09-01T07:40:41;14.70;99.90
18252;DHT22;26917;52.328;20.878;2022-09-01T07:44:18;14.70;99.90
18252;DHT22;26917;52.328;20.878;2022-09-01T07:47:32;14.80;99.90
18252;DHT22;26917;52.328;20.878;2022-09-01T07:50:26;14.80;99.90
18252;DHT22;26917;52.328;20.878;2022-09-01T07:57:54;15.10;99.90
18252;DHT22;26917;52.328;20.878;2022-09-01T08:00:26;15.30;99.90
18252;DHT22;26917;52.328;20.878;2022-09-01T08:10:43;15.80;99.90
18252;DHT22;26917;52.328;20.878;2022-09-01T08:16:52;16.10;99.40
18252;DHT22;26917;52.328;20.878;2022-09-01T08:19:22;16.20;99.10
18252;DHT22;26917;52.328;20.878;2022-09-01T08:26:04;16.40;97.90
18252;DHT22;26917;52.328;20.878;2022-09-01T08:28:41;16.60;97.90
18252;DHT22;26917;52.328;20.878;2022-09-01T08:31:29;16.60;97.50
18252;DHT22;26917;52.328;20.878;2022-09-01T08:37:49;16.70;96.80
18252;DHT22;26917;52.328;20.878;2022-09-01T08:40:20;16.70;96.70
18252;DHT22;26917;52.328;20.878;2022-09-01T08:42:57;16.70;97.10
18252;DHT22;26917;52.328;20.878;2022-09-01T08:45:32;16.70;97.10
18252;DHT22;26917;52.328;20.878;2022-09-01T08:52:36;16.80;96.80
18252;DHT22;26917;52.328;20.878;2022-09-01T08:55:50;16.90;96.40
18252;DHT22;26917;52.328;20.878;2022-09-01T08:58:22;17.20;96.40
18252;DHT22;26917;52.328;20.878;2022-09-01T09:01:19;17.50;96.40
18252;DHT22;26917;52.328;20.878;2022-09-01T09:04:24;17.70;95.10
18252;DHT22;26917;52.328;20.878;2022-09-01T09:11:18;17.70;94.60
18252;DHT22;26917;52.328;20.878;2022-09-01T09:14:10;17.70;94.20
18252;DHT22;26917;52.328;20.878;2022-09-01T09:17:27;17.70;94.80
18252;DHT22;26917;52.328;20.878;2022-09-01T09:19:59;18.10;95.30
18252;DHT22;26917;52.328;20.878;2022-09-01T09:22:32;18.80;94.60
18252;DHT22;26917;52.328;20.878;2022-09-01T09:25:05;19.70;92.10
18252;DHT22;26917;52.328;20.878;2022-09-01T09:30:36;20.50;86.30
18252;DHT22;26917;52.328;20.878;2022-09-01T09:33:06;20.60;87.50
18252;DHT22;26917;52.328;20.878;2022-09-01T09:36:16;20.60;86.30
18252;DHT22;26917;52.328;20.878;2022-09-01T09:39:05;20.50;84.40
18252;DHT22;26917;52.328;20.878;2022-09-01T09:42:03;20.50;84.50
18252;DHT22;26917;52.328;20.878;2022-09-01T09:44:40;20.60;84.50
18252;DHT22;26917;52.328;20.878;2022-09-01T09:47:43;20.70;82.10
18252;DHT22;26917;52.328;20.878;2022-09-01T09:50:31;20.70;85.00
18252;DHT22;26917;52.328;20.878;2022-09-01T09:53:17;20.50;84.10
18252;DHT22;26917;52.328;20.878;2022-09-01T09:55:57;20.30;83.10
18252;DHT22;26917;52.328;20.878;2022-09-01T09:58:32;20.10;85.10
18252;DHT22;26917;52.328;20.878;2022-09-01T10:01:06;20.00;84.80
18252;DHT22;26917;52.328;20.878;2022-09-01T10:03:47;19.90;84.80
18252;DHT22;26917;52.328;20.878;2022-09-01T10:06:42;19.70;85.60
18252;DHT22;26917;52.328;20.878;2022-09-01T10:09:16;19.80;86.80
18252;DHT22;26917;52.328;20.878;2022-09-01T10:12:01;19.90;87.20
18252;DHT22;26917;52.328;20.878;2022-09-01T10:14:34;20.10;87.90
18252;DHT22;26917;52.328;20.878;2022-09-01T10:17:28;20.40;88.40
18252;DHT22;26917;52.328;20.878;2022-09-01T10:20:16;20.70;87.20
18252;DHT22;26917;52.328;20.878;2022-09-01T10:22:51;20.70;87.20
18252;DHT22;26917;52.328;20.878;2022-09-01T10:25:24;20.80;86.40
18252;DHT22;26917;52.328;20.878;2022-09-01T10:27:58;20.70;86.90
18252;DHT22;26917;52.328;20.878;2022-09-01T10:30:29;20.70;83.60
18252;DHT22;26917;52.328;20.878;2022-09-01T10:33:00;20.50;84.30
18252;DHT22;26917;52.328;20.878;2022-09-01T10:35:50;20.10;83.10
18252;DHT22;26917;52.328;20.878;2022-09-01T10:38:24;19.90;82.70
18252;DHT22;26917;52.328;20.878;2022-09-01T10:41:00;19.60;81.60
18252;DHT22;26917;52.328;20.878;2022-09-01T10:44:15;19.50;83.20
18252;DHT22;26917;52.328;20.878;2022-09-01T10:46:47;19.50;83.00
18252;DHT22;26917;52.328;20.878;2022-09-01T10:56:08;19.50;84.20
18252;DHT22;26917;52.328;20.878;2022-09-01T10:59:04;19.50;84.90
18252;DHT22;26917;52.328;20.878;2022-09-01T11:02:14;19.60;85.20
18252;DHT22;26917;52.328;20.878;2022-09-01T11:05:19;19.60;84.60
18252;DHT22;26917;52.328;20.878;2022-09-01T11:07:50;19.80;84.90
18252;DHT22;26917;52.328;20.878;2022-09-01T11:10:47;19.80;85.60
18252;DHT22;26917;52.328;20.878;2022-09-01T11:13:40;19.90;82.00
18252;DHT22;26917;52.328;20.878;2022-09-01T11:16:33;20.10;79.70
18252;DHT22;26917;52.328;20.878;2022-09-01T11:19:42;20.30;78.00
18252;DHT22;26917;52.328;20.878;2022-09-01T11:22:26;20.30;78.30
18252;DHT22;26917;52.328;20.878;2022-09-01T11:25:29;20.20;78.60
18252;DHT22;26917;52.328;20.878;2022-09-01T11:28:41;20.00;80.60
18252;DHT22;26917;52.328;20.878;2022-09-01T11:31:41;19.70;80.50
18252;DHT22;26917;52.328;20.878;2022-09-01T11:34:19;19.60;81.70
18252;DHT22;26917;52.328;20.878;2022-09-01T11:37:21;19.50;80.90
18252;DHT22;26917;52.328;20.878;2022-09-01T11:40:31;19.50;81.00
18252;DHT22;26917;52.328;20.878;2022-09-01T11:43:07;19.50;82.00
18252;DHT22;26917;52.328;20.878;2022-09-01T11:45:49;19.40;82.60
18252;DHT22;26917;52.328;20.878;2022-09-01T11:48:30;19.40;82.30
18252;DHT22;26917;52.328;20.878;2022-09-01T11:51:06;19.50;75.50
18252;DHT22;26917;52.328;20.878;2022-09-01T11:53:42;19.60;77.00
18252;DHT22;26917;52.328;20.878;2022-09-01T11:56:47;19.80;77.00
18252;DHT22;26917;52.328;20.878;2022-09-01T11:59:30;20.00;78.40
18252;DHT22;26917;52.328;20.878;2022-09-01T12:05:33;19.90;77.80
18252;DHT22;26917;52.328;20.878;2022-09-01T12:08:12;19.80;78.80
18252;DHT22;26917;52.328;20.878;2022-09-01T12:10:44;19.70;79.50
18252;DHT22;26917;52.328;20.878;2022-09-01T12:13:18;19.50;79.90
18252;DHT22;26917;52.328;20.878;2022-09-01T12:15:52;19.40;81.00
18252;DHT22;26917;52.328;20.878;2022-09-01T12:23:48;19.20;78.60
18252;DHT22;26917;52.328;20.878;2022-09-01T12:26:29;19.30;80.20
18252;DHT22;26917;52.328;20.878;2022-09-01T12:29:01;19.40;78.90
18252;DHT22;26917;52.328;20.878;2022-09-01T12:31:35;19.50;76.80
18252;DHT22;26917;52.328;20.878;2022-09-01T12:34:03;19.60;78.40
18252;DHT22;26917;52.328;20.878;2022-09-01T12:36:34;19.70;76.90
18252;DHT22;26917;52.328;20.878;2022-09-01T12:39:23;19.90;73.80
18252;DHT22;26917;52.328;20.878;2022-09-01T12:42:26;20.00;73.40
18252;DHT22;26917;52.328;20.878;2022-09-01T12:45:36;20.20;75.30
18252;DHT22;26917;52.328;20.878;2022-09-01T12:48:05;20.40;76.30
18252;DHT22;26917;52.328;20.878;2022-09-01T12:50:51;20.50;76.70
18252;DHT22;26917;52.328;20.878;2022-09-01T12:53:29;20.60;73.00
18252;DHT22;26917;52.328;20.878;2022-09-01T12:56:22;20.80;73.80
18252;DHT22;26917;52.328;20.878;2022-09-01T12:59:08;20.90;75.30
18252;DHT22;26917;52.328;20.878;2022-09-01T13:02:32;20.90;73.70
18252;DHT22;26917;52.328;20.878;2022-09-01T13:05:25;20.70;75.00
18252;DHT22;26917;52.328;20.878;2022-09-01T13:08:24;20.40;75.60
18252;DHT22;26917;52.328;20.878;2022-09-01T13:14:55;20.00;77.90
18252;DHT22;26917;52.328;20.878;2022-09-01T13:17:48;19.90;78.90
18252;DHT22;26917;52.328;20.878;2022-09-01T13:20:35;19.70;78.40
18252;DHT22;26917;52.328;20.878;2022-09-01T13:23:08;19.60;78.10
18252;DHT22;26917;52.328;20.878;2022-09-01T13:25:51;19.60;77.80
18252;DHT22;26917;52.328;20.878;2022-09-01T13:28:51;19.50;75.70
18252;DHT22;26917;52.328;20.878;2022-09-01T13:31:21;19.40;76.40
18252;DHT22;26917;52.328;20.878;2022-09-01T13:34:01;19.40;76.70
18252;DHT22;26917;52.328;20.878;2022-09-01T13:36:54;19.40;77.30
18252;DHT22;26917;52.328;20.878;2022-09-01T13:39:27;19.60;78.10
18252;DHT22;26917;52.328;20.878;2022-09-01T13:41:56;19.90;76.60
18252;DHT22;26917;52.328;20.878;2022-09-01T13:44:24;20.10;75.50
18252;DHT22;26917;52.328;20.878;2022-09-01T13:47:11;20.30;75.60
18252;DHT22;26917;52.328;20.878;2022-09-01T13:50:25;20.40;75.60
18252;DHT22;26917;52.328;20.878;2022-09-01T13:54:22;20.30;76.60
18252;DHT22;26917;52.328;20.878;2022-09-01T13:57:14;20.20;77.60
18252;DHT22;26917;52.328;20.878;2022-09-01T13:59:52;20.20;78.10
18252;DHT22;26917;52.328;20.878;2022-09-01T14:02:27;20.10;78.90
18252;DHT22;26917;52.328;20.878;2022-09-01T14:09:16;20.00;78.00
18252;DHT22;26917;52.328;20.878;2022-09-01T14:11:59;20.10;77.60
18252;DHT22;26917;52.328;20.878;2022-09-01T14:17:31;20.10;78.20
18252;DHT22;26917;52.328;20.878;2022-09-01T14:19:06;20.10;78.30
18252;DHT22;26917;52.328;20.878;2022-09-01T14:22:01;20.30;78.40
18252;DHT22;26917;52.328;20.878;2022-09-01T14:25:25;20.30;76.60
18252;DHT22;26917;52.328;20.878;2022-09-01T14:31:17;20.10;74.40
18252;DHT22;26917;52.328;20.878;2022-09-01T14:34:27;20.00;73.70
18252;DHT22;26917;52.328;20.878;2022-09-01T14:41:07;19.80;74.50
18252;DHT22;26917;52.328;20.878;2022-09-01T14:43:43;19.70;75.40
18252;DHT22;26917;52.328;20.878;2022-09-01T14:46:17;19.70;75.60
18252;DHT22;26917;52.328;20.878;2022-09-01T14:48:46;19.70;75.30
18252;DHT22;26917;52.328;20.878;2022-09-01T14:51:21;19.70;75.60
18252;DHT22;26917;52.328;20.878;2022-09-01T14:53:50;19.80;75.50
18252;DHT22;26917;52.328;20.878;2022-09-01T14:56:23;19.90;76.40
18252;DHT22;26917;52.328;20.878;2022-09-01T14:58:54;20.10;76.90
18252;DHT22;26917;52.328;20.878;2022-09-01T15:01:33;20.20;75.00
18252;DHT22;26917;52.328;20.878;2022-09-01T15:04:04;20.20;75.10
18252;DHT22;26917;52.328;20.878;2022-09-01T15:10:46;20.10;75.60
18252;DHT22;26917;52.328;20.878;2022-09-01T15:13:25;20.10;76.50
18252;DHT22;26917;52.328;20.878;2022-09-01T15:16:47;20.10;75.70
18252;DHT22;26917;52.328;20.878;2022-09-01T15:19:47;20.00;75.30
18252;DHT22;26917;52.328;20.878;2022-09-01T15:22:17;20.00;75.50
18252;DHT22;26917;52.328;20.878;2022-09-01T15:24:48;20.00;74.10
18252;DHT22;26917;52.328;20.878;2022-09-01T15:27:26;20.00;75.10
18252;DHT22;26917;52.328;20.878;2022-09-01T15:30:01;19.90;75.70
18252;DHT22;26917;52.328;20.878;2022-09-01T15:37:48;19.70;76.70
18252;DHT22;26917;52.328;20.878;2022-09-01T15:45:13;19.50;78.00
18252;DHT22;26917;52.328;20.878;2022-09-01T15:48:07;19.30;78.40
18252;DHT22;26917;52.328;20.878;2022-09-01T15:54:55;19.20;77.30
18252;DHT22;26917;52.328;20.878;2022-09-01T16:38:59;17.90;82.20
18252;DHT22;26917;52.328;20.878;2022-09-01T17:15:29;17.10;85.40
18252;DHT22;26917;52.328;20.878;2022-09-01T18:13:27;15.50;89.30
18252;DHT22;26917;52.328;20.878;2022-09-01T18:21:33;15.20;89.90
18252;DHT22;26917;52.328;20.878;2022-09-01T18:24:56;15.10;89.60
18252;DHT22;26917;52.328;20.878;2022-09-01T19:26:25;13.90;92.10
18252;DHT22;26917;52.328;20.878;2022-09-01T19:28:58;13.80;92.00
18252;DHT22;26917;52.328;20.878;2022-09-01T19:31:52;13.70;92.00
18252;DHT22;26917;52.328;20.878;2022-09-01T19:34:34;13.70;92.80
18252;DHT22;26917;52.328;20.878;2022-09-01T19:37:14;13.60;92.70
18252;DHT22;26917;52.328;20.878;2022-09-01T19:51:11;13.40;93.20
18252;DHT22;26917;52.328;20.878;2022-09-01T20:02:01;13.30;93.60
18252;DHT22;26917;52.328;20.878;2022-09-01T20:09:48;13.10;93.70
18252;DHT22;26917;52.328;20.878;2022-09-01T20:12:29;13.00;93.70
18252;DHT22;26917;52.328;20.878;2022-09-01T20:16:01;13.00;94.00
18252;DHT22;26917;52.328;20.878;2022-09-01T20:22:25;12.90;93.90
18252;DHT22;26917;52.328;20.878;2022-09-01T21:27:04;12.10;95.00
